Ashland, Oregon
Current Conditions -  °F | °C
As of 8:53 PM on Monday 20 Oct 2014 (Local Time) from KMFR Reporting Station
Overcast Overcast  
Wind Chill: 54°   Ceiling: 8000
Heat Index: 54°   Visibility: 10mi
Dew Point: 45°   Wind: 3mph
Humidity: 72%   Direction: 180°S
Pressure: 29.94"   Gusts: NA
Location:  42.2°N, 122.71°W
Report Text: KMFR 210353Z 18003KT 10SM BKN080 OVC100 12/07 A2994 RMK AO2 SLP136 T01220072
Loading
Personal Weather Stations






























Interactive Weather Map New forecast layout! Learn more

10-Day Weather Forecast

Advertisements
Track Severe Weather on mobile